| time (UTC) | temp F | wind direction | speed MPH | gust MPH | rain 1hr in | rain 24hr in | rain mn in | humidity % | barometer mb |
| 20260506201820 | 66 | 229 | 2.0 | 7.0 | 0.00 | 0.20 | 0.20 | 83 | 1008.2 |
| 20260506200819 | 67 | 332 | 2.0 | 7.0 | 0.00 | 0.20 | 0.20 | 84 | 1008.2 |
| 20260506195827 | 66 | 181 | 2.0 | 8.0 | 0.00 | 0.20 | 0.20 | 85 | 1008.2 |
| 20260506194822 | 65 | 185 | 1.0 | 5.0 | 0.00 | 0.20 | 0.20 | 87 | 1008.1 |
| 20260506193816 | 64 | 178 | 2.0 | 5.0 | 0.00 | 0.20 | 0.20 | 88 | 1008.3 |
| 20260506192830 | 63 | 189 | 1.0 | 3.0 | 0.00 | 0.20 | 0.20 | 88 | 1008.3 |
| 20260506191839 | 63 | 182 | 2.0 | 5.0 | 0.01 | 0.20 | 0.20 | 88 | 1008.4 |
| 20260506190822 | 63 | 180 | 2.0 | 5.0 | 0.01 | 0.20 | 0.20 | 89 | 1008.6 |
| 20260506185841 | 63 | 190 | 2.0 | 5.0 | 0.01 | 0.20 | 0.20 | 89 | 1008.6 |
| 20260506184825 | 62 | 191 | 2.0 | 5.0 | 0.01 | 0.20 | 0.20 | 90 | 1008.6 |
| 20260506183819 | 62 | 159 | 2.0 | 5.0 | 0.01 | 0.20 | 0.20 | 90 | 1008.7 |
| 20260506182832 | 62 | 199 | 2.0 | 5.0 | 0.01 | 0.20 | 0.20 | 91 | 1008.8 |
| 20260506181826 | 61 | 179 | 1.0 | 5.0 | 0.00 | 0.19 | 0.19 | 91 | 1008.8 |
| 20260506180819 | 61 | 164 | 2.0 | 4.0 | 0.00 | 0.19 | 0.19 | 91 | 1009.1 |
| 20260506175825 | 61 | 220 | 2.0 | 9.0 | 0.00 | 0.19 | 0.19 | 91 | 1009.2 |
| 20260506174818 | 60 | 142 | 2.0 | 7.0 | 0.00 | 0.19 | 0.19 | 91 | 1009.2 |
| 20260506173831 | 60 | 216 | 2.0 | 6.0 | 0.00 | 0.19 | 0.19 | 91 | 1009.2 |
| 20260506172844 | 60 | 208 | 3.0 | 6.0 | 0.00 | 0.19 | 0.19 | 91 | 1009.1 |
| 20260506171852 | 60 | 175 | 2.0 | 5.0 | 0.00 | 0.19 | 0.19 | 91 | 1009.1 |
| 20260506170844 | 60 | 163 | 3.0 | 6.0 | 0.00 | 0.19 | 0.19 | 91 | 1009.1 |
| 20260506165830 | 60 | 194 | 3.0 | 6.0 | 0.00 | 0.19 | 0.19 | 92 | 1009.1 |
| 20260506164853 | 59 | 177 | 2.0 | 6.0 | 0.00 | 0.19 | 0.19 | 91 | 1009.2 |
| 20260506163815 | 59 | 196 | 3.0 | 7.0 | 0.00 | 0.19 | 0.19 | 92 | 1009.1 |
| 20260506162827 | 59 | 181 | 2.0 | 4.0 | 0.01 | 0.19 | 0.19 | 91 | 1009.3 |
| 20260506161819 | 59 | 212 | 2.0 | 6.0 | 0.02 | 0.19 | 0.19 | 91 | 1009.4 |
| 20260506160832 | 59 | 217 | 4.0 | 6.0 | 0.03 | 0.19 | 0.19 | 91 | 1009.4 |
| 20260506155816 | 59 | 179 | 3.0 | 8.0 | 0.05 | 0.19 | 0.19 | 92 | 1009.3 |
| 20260506154850 | 59 | 209 | 3.0 | 6.0 | 0.08 | 0.19 | 0.19 | 91 | 1009.1 |
| 20260506153822 | 59 | 199 | 4.0 | 6.0 | 0.09 | 0.19 | 0.19 | 91 | 1009.1 |
| 20260506152816 | 59 | 173 | 4.0 | 6.0 | 0.08 | 0.18 | 0.18 | 91 | 1009.2 |
| 20260506151833 | 59 | 169 | 3.0 | 6.0 | 0.08 | 0.17 | 0.17 | 91 | 1009.8 |
| 20260506150829 | 59 | 191 | 2.0 | 6.0 | 0.07 | 0.16 | 0.16 | 91 | 1010.0 |
| 20260506145814 | 59 | 177 | 3.0 | 8.0 | 0.06 | 0.14 | 0.14 | 90 | 1010.0 |
| 20260506144827 | 60 | 200 | 2.0 | 6.0 | 0.04 | 0.11 | 0.11 | 90 | 1010.1 |
| 20260506143839 | 60 | 188 | 2.0 | 8.0 | 0.04 | 0.10 | 0.10 | 90 | 1010.0 |
| 20260506142822 | 60 | 174 | 3.0 | 6.0 | 0.06 | 0.10 | 0.10 | 90 | 1009.8 |
| 20260506141842 | 60 | 180 | 3.0 | 6.0 | 0.07 | 0.09 | 0.09 | 89 | 1009.5 |
| 20260506140829 | 60 | 187 | 4.0 | 7.0 | 0.08 | 0.09 | 0.09 | 89 | 1009.9 |
| 20260506135834 | 60 | 184 | 3.0 | 6.0 | 0.07 | 0.08 | 0.08 | 89 | 1010.0 |
| 20260506134827 | 60 | 194 | 2.0 | 4.0 | 0.07 | 0.07 | 0.07 | 88 | 1010.1 |
| 20260506133839 | 60 | 177 | 3.0 | 5.0 | 0.06 | 0.06 | 0.06 | 87 | 1010.2 |
| 20260506132821 | 61 | 178 | 2.0 | 4.0 | 0.04 | 0.04 | 0.04 | 86 | 1010.2 |
| 20260506131832 | 61 | 207 | 2.0 | 5.0 | 0.02 | 0.02 | 0.02 | 85 | 1010.0 |
| 20260506130825 | 62 | 257 | 2.0 | 3.0 | 0.01 | 0.01 | 0.01 | 84 | 1010.1 |
| 20260506125830 | 62 | 187 | 2.0 | 5.0 | 0.01 | 0.01 | 0.01 | 83 | 1010.0 |
| 20260506124822 | 62 | 180 | 3.0 | 5.0 | 0.00 | 0.00 | 0.00 | 82 | 1010.1 |
| 20260506123814 | 63 | 190 | 3.0 | 5.0 | 0.00 | 0.00 | 0.00 | 81 | 1010.1 |
| 20260506122827 | 63 | 197 | 3.0 | 5.0 | 0.00 | 0.00 | 0.00 | 80 | 1010.2 |
| 20260506121820 | 63 | 200 | 3.0 | 6.0 | 0.00 | 0.00 | 0.00 | 80 | 1010.4 |
| 20260506120834 | 63 | 187 | 3.0 | 7.0 | 0.00 | 0.00 | 0.00 | 79 | 1010.5 |
| 20260506115819 | 63 | 185 | 4.0 | 9.0 | 0.00 | 0.00 | 0.00 | 79 | 1010.3 |
| 20260506114833 | 63 | 231 | 3.0 | 6.0 | 0.00 | 0.00 | 0.00 | 79 | 1010.1 |
| 20260506113816 | 63 | 178 | 2.0 | 6.0 | 0.00 | 0.00 | 0.00 | 79 | 1009.9 |
| 20260506112828 | 63 | 188 | 3.0 | 6.0 | 0.00 | 0.00 | 0.00 | 79 | 1010.0 |
| 20260506111821 | 64 | 185 | 2.0 | 8.0 | 0.00 | 0.00 | 0.00 | 78 | 1009.7 |
| 20260506110815 | 64 | 197 | 4.0 | 7.0 | 0.00 | 0.00 | 0.00 | 78 | 1009.8 |
| 20260506105821 | 64 | 184 | 4.0 | 8.0 | 0.00 | 0.00 | 0.00 | 77 | 1009.7 |
| 20260506104832 | 64 | 193 | 4.0 | 7.0 | 0.00 | 0.00 | 0.00 | 77 | 1009.6 |
| 20260506103824 | 64 | 186 | 4.0 | 10.0 | 0.00 | 0.00 | 0.00 | 77 | 1009.4 |
| 20260506102835 | 64 | 190 | 3.0 | 8.0 | 0.00 | 0.00 | 0.00 | 77 | 1009.4 |
| 20260506101826 | 64 | 190 | 3.0 | 9.0 | 0.00 | 0.00 | 0.00 | 77 | 1009.4 |
| 20260506100818 | 64 | 194 | 4.0 | 7.0 | 0.00 | 0.00 | 0.00 | 76 | 1009.4 |
| 20260506095819 | 64 | 188 | 4.0 | 6.0 | 0.00 | 0.00 | 0.00 | 76 | 1009.4 |
| 20260506094832 | 64 | 182 | 4.0 | 6.0 | 0.00 | 0.00 | 0.00 | 75 | 1009.4 |
| 20260506093824 | 64 | 188 | 4.0 | 6.0 | 0.00 | 0.00 | 0.00 | 75 | 1009.2 |
| 20260506092815 | 65 | 175 | 3.0 | 6.0 | 0.00 | 0.00 | 0.00 | 74 | 1009.3 |
| 20260506091828 | 65 | 180 | 2.0 | 6.0 | 0.00 | 0.00 | 0.00 | 73 | 1009.3 |
| 20260506090841 | 65 | 195 | 3.0 | 6.0 | 0.00 | 0.00 | 0.00 | 73 | 1009.5 |
| 20260506085824 | 65 | 196 | 4.0 | 7.0 | 0.00 | 0.00 | 0.00 | 73 | 1009.6 |
| 20260506084837 | 65 | 173 | 3.0 | 7.0 | 0.00 | 0.00 | 0.00 | 72 | 1009.6 |
| 20260506083822 | 66 | 199 | 4.0 | 7.0 | 0.00 | 0.00 | 0.00 | 72 | 1009.7 |
| 20260506082844 | 66 | 184 | 3.0 | 7.0 | 0.00 | 0.00 | 0.00 | 71 | 1009.7 |
| 20260506081836 | 66 | 188 | 3.0 | 7.0 | 0.00 | 0.00 | 0.00 | 70 | 1009.6 |
| 20260506080818 | 66 | 190 | 4.0 | 6.0 | 0.00 | 0.00 | 0.00 | 69 | 1009.4 |
| 20260506072816 | 68 | 185 | 3.0 | 6.0 | 0.00 | 0.00 | 0.00 | 67 | 1009.7 |
| 20260506071829 | 68 | 190 | 3.0 | 6.0 | 0.00 | 0.00 | 0.00 | 66 | 1009.8 |
| 20260506070820 | 68 | 183 | 3.0 | 6.0 | 0.00 | 0.00 | 0.00 | 65 | 1009.8 |
| 20260506061851 | 69 | 178 | 2.0 | 7.0 | 0.00 | 0.00 | 0.00 | 63 | 1010.2 |
| 20260506060852 | 69 | 183 | 3.0 | 7.0 | 0.00 | 0.00 | 0.00 | 63 | 1010.3 |
| 20260506050835 | 69 | 202 | 3.0 | 8.0 | 0.00 | 0.00 | 0.00 | 60 | 1010.8 |
| 20260506044824 | 70 | 280 | 3.0 | 6.0 | 0.00 | 0.00 | 0.00 | 59 | 1010.9 |
| 20260506043816 | 70 | 195 | 3.0 | 7.0 | 0.00 | 0.00 | 0.00 | 58 | 1010.9 |
| 20260506042848 | 70 | 179 | 4.0 | 7.0 | 0.00 | 0.00 | 0.00 | 57 | 1010.9 |
| 20260506041817 | 70 | 184 | 3.0 | 6.0 | 0.00 | 0.00 | 0.00 | 56 | 1010.9 |
| 20260506040828 | 70 | 202 | 3.0 | 6.0 | 0.00 | 0.00 | 0.00 | 55 | 1010.8 |
| 20260506035849 | 70 | 186 | 3.0 | 7.0 | 0.00 | 0.00 | 0.00 | 54 | 1010.8 |
| 20260506034820 | 70 | 181 | 4.0 | 5.0 | 0.00 | 0.00 | 0.00 | 54 | 1010.9 |
| 20260506033831 | 70 | 189 | 2.0 | 5.0 | 0.00 | 0.00 | 0.00 | 53 | 1010.8 |
| 20260506032823 | 70 | 204 | 3.0 | 5.0 | 0.00 | 0.00 | 0.00 | 52 | 1010.8 |
| 20260506031816 | 70 | 162 | 3.0 | 6.0 | 0.00 | 0.00 | 0.00 | 52 | 1010.8 |
| 20260506030828 | 70 | 199 | 2.0 | 4.0 | 0.00 | 0.00 | 0.00 | 51 | 1010.8 |
| 20260506025813 | 70 | 189 | 3.0 | 5.0 | 0.00 | 0.00 | 0.00 | 50 | 1010.8 |
| 20260506024847 | 71 | 180 | 3.0 | 5.0 | 0.00 | 0.00 | 0.00 | 49 | 1010.8 |
| 20260506023816 | 71 | 180 | 3.0 | 4.0 | 0.00 | 0.00 | 0.00 | 48 | 1010.9 |
| 20260506022848 | 71 | 175 | 3.0 | 5.0 | 0.00 | 0.00 | 0.00 | 47 | 1010.9 |
| 20260506021818 | 71 | 182 | 3.0 | 5.0 | 0.00 | 0.00 | 0.00 | 46 | 1010.9 |
| 20260506020830 | 71 | 182 | 3.0 | 5.0 | 0.00 | 0.00 | 0.00 | 46 | 1010.9 |
| 20260506015817 | 72 | 180 | 2.0 | 4.0 | 0.00 | 0.00 | 0.00 | 45 | 1010.9 |
| 20260506014829 | 72 | 191 | 3.0 | 4.0 | 0.00 | 0.00 | 0.00 | 44 | 1010.8 |
| 20260506013823 | 72 | 196 | 2.0 | 4.0 | 0.00 | 0.00 | 0.00 | 43 | 1010.8 |
| 20260506012816 | 73 | 197 | 2.0 | 4.0 | 0.00 | 0.00 | 0.00 | 42 | 1010.7 |
| 20260506011830 | 73 | 200 | 2.0 | 4.0 | 0.00 | 0.00 | 0.00 | 41 | 1010.6 |
| 20260506010813 | 73 | 205 | 2.0 | 4.0 | 0.00 | 0.00 | 0.00 | 41 | 1010.3 |
| 20260506005829 | 74 | 174 | 3.0 | 6.0 | 0.00 | 0.00 | 0.00 | 40 | 1010.2 |
| 20260506004814 | 74 | 198 | 3.0 | 5.0 | 0.00 | 0.00 | 0.00 | 39 | 1010.1 |
| 20260506003857 | 75 | 188 | 2.0 | 7.0 | 0.00 | 0.00 | 0.00 | 38 | 1010.0 |
| 20260506002818 | 75 | 184 | 3.0 | 6.0 | 0.00 | 0.00 | 0.00 | 38 | 1009.9 |
| 20260506001828 | 75 | 245 | 4.0 | 6.0 | 0.00 | 0.00 | 0.00 | 38 | 1009.9 |
| 20260506000819 | 75 | 222 | 4.0 | 8.0 | 0.00 | 0.00 | 0.00 | 39 | 1009.8 |
| 20260505235824 | 75 | 192 | 4.0 | 9.0 | 0.00 | 0.00 | 0.00 | 39 | 1009.7 |
| 20260505234818 | 76 | 198 | 3.0 | 6.0 | 0.00 | 0.00 | 0.00 | 40 | 1009.7 |
| 20260505233831 | 76 | 311 | 3.0 | 6.0 | 0.00 | 0.00 | 0.00 | 39 | 1009.5 |
| 20260505232824 | 76 | 163 | 3.0 | 7.0 | 0.00 | 0.00 | 0.00 | 39 | 1009.5 |
| 20260505231816 | 76 | 213 | 2.0 | 6.0 | 0.00 | 0.00 | 0.00 | 40 | 1009.5 |
| 20260505230829 | 76 | 168 | 3.0 | 5.0 | 0.00 | 0.00 | 0.00 | 40 | 1009.5 |
| 20260505225816 | 77 | 198 | 3.0 | 9.0 | 0.00 | 0.00 | 0.00 | 39 | 1009.5 |
| 20260505224834 | 77 | 186 | 5.0 | 9.0 | 0.00 | 0.00 | 0.00 | 39 | 1009.5 |
| 20260505223832 | 78 | 212 | 2.0 | 6.0 | 0.00 | 0.00 | 0.00 | 39 | 1009.6 |
| 20260505222831 | 78 | 198 | 3.0 | 10.0 | 0.00 | 0.00 | 0.00 | 38 | 1009.6 |
| 20260505221820 | 79 | 200 | 4.0 | 10.0 | 0.00 | 0.00 | 0.00 | 38 | 1009.5 |
| 20260505220813 | 80 | 215 | 4.0 | 11.0 | 0.00 | 0.00 | 0.00 | 36 | 1009.5 |
| 20260505215818 | 80 | 171 | 5.0 | 10.0 | 0.00 | 0.00 | 0.00 | 36 | 1009.4 |
| 20260505214859 | 80 | 175 | 5.0 | 12.0 | 0.00 | 0.00 | 0.00 | 36 | 1009.3 |
| 20260505213821 | 81 | 237 | 5.0 | 12.0 | 0.00 | 0.00 | 0.00 | 37 | 1009.5 |
| 20260505212814 | 81 | 188 | 5.0 | 11.0 | 0.00 | 0.00 | 0.00 | 37 | 1009.3 |
| 20260505211823 | 80 | 202 | 5.0 | 10.0 | 0.00 | 0.00 | 0.00 | 36 | 1009.2 |
| 20260505210814 | 80 | 190 | 4.0 | 14.0 | 0.00 | 0.00 | 0.00 | 36 | 1009.3 |
| 20260505205850 | 81 | 211 | 4.0 | 11.0 | 0.00 | 0.00 | 0.00 | 37 | 1009.2 |
| 20260505204813 | 81 | 198 | 4.0 | 10.0 | 0.00 | 0.00 | 0.00 | 38 | 1009.3 |
| 20260505203828 | 81 | 188 | 5.0 | 10.0 | 0.00 | 0.00 | 0.00 | 39 | 1009.3 |
| 20260505202820 | 80 | 184 | 5.0 | 10.0 | 0.00 | 0.00 | 0.00 | 37 | 1009.1 |